Time;durP1;ratioP1;P1;durP2;ratioP2;P2;SDS_P1;SDS_P2;PMS_P1;PMS_P2;Temp;Humidity;BMP_temperature;BMP_pressure;BME280_temperature;BME280_humidity;BME280_pressure;Samples;Min_cycle;Max_cycle;Signal;HPM_P1;HPM_P2
2023/01/09 00:01:11;;;;;;;27.90;2.30;;;6.50;99.90;;;;;;5094396;28;20048;-76
2023/01/09 00:03:39;;;;;;;28.63;3.10;;;6.80;99.90;;;;;;5060420;28;20048;-75
2023/01/09 00:06:07;;;;;;;33.08;2.70;;;6.50;99.90;;;;;;5080896;28;20055;-76
2023/01/09 00:08:34;;;;;;;36.20;3.05;;;6.50;99.90;;;;;;5097070;28;20044;-76
2023/01/09 00:11:02;;;;;;;25.25;3.00;;;6.60;99.90;;;;;;5095559;28;20387;-76
2023/01/09 00:13:30;;;;;;;28.38;2.90;;;6.60;99.90;;;;;;5114578;28;20048;-76
2023/01/09 00:15:58;;;;;;;28.08;2.72;;;6.60;99.90;;;;;;5114738;28;20075;-76
2023/01/09 00:18:26;;;;;;;28.98;2.75;;;6.60;99.90;;;;;;5113279;28;20052;-76
2023/01/09 00:20:53;;;;;;;29.63;2.38;;;6.60;99.90;;;;;;5116958;28;20051;-76
2023/01/09 00:23:21;;;;;;;22.77;2.33;;;7.40;99.90;;;;;;5100684;28;20067;-76
2023/01/09 00:25:48;;;;;;;21.08;2.35;;;6.80;99.90;;;;;;5117139;28;20373;-76
2023/01/09 00:28:16;;;;;;;18.80;2.17;;;6.60;99.90;;;;;;5118047;28;20051;-75
2023/01/09 00:30:43;;;;;;;19.85;2.22;;;7.00;99.90;;;;;;5116871;28;20226;-76
2023/01/09 00:33:11;;;;;;;23.65;2.22;;;6.70;99.90;;;;;;5118074;28;20035;-76
2023/01/09 00:35:39;;;;;;;17.40;1.50;;;6.70;99.90;;;;;;5117935;28;20062;-76
2023/01/09 00:38:06;;;;;;;14.32;1.58;;;6.70;99.90;;;;;;5117001;28;20055;-76
2023/01/09 00:40:34;;;;;;;17.73;1.70;;;6.70;99.90;;;;;;5117801;28;20048;-75
2023/01/09 00:43:01;;;;;;;14.98;1.58;;;6.80;99.90;;;;;;5117966;28;20368;-76
2023/01/09 00:45:29;;;;;;;15.05;1.50;;;6.80;99.90;;;;;;5098754;28;20051;-76
2023/01/09 00:48:04;;;;;;;14.55;1.30;;;6.70;99.90;;;;;;5083174;28;20035;-76
2023/01/09 00:50:33;;;;;;;20.85;1.80;;;6.70;99.90;;;;;;5116911;28;20055;-75
2023/01/09 00:53:09;;;;;;;13.43;1.40;;;6.70;99.90;;;;;;5117566;28;20043;-76
2023/01/09 00:55:38;;;;;;;17.02;1.55;;;6.70;99.90;;;;;;5100046;28;20038;-76
2023/01/09 00:58:05;;;;;;;15.95;1.50;;;6.70;99.90;;;;;;5098576;28;20364;-76
2023/01/09 01:00:33;;;;;;;14.77;1.40;;;6.70;99.90;;;;;;5099642;28;20044;-75
2023/01/09 01:03:01;;;;;;;16.05;1.65;;;6.70;99.90;;;;;;5099725;28;20043;-75
2023/01/09 01:08:17;;;;;;;15.13;1.52;;;6.80;99.90;;;;;;5099668;28;20048;-76
2023/01/09 01:10:45;;;;;;;17.75;1.63;;;6.80;99.90;;;;;;5116069;28;20043;-75
2023/01/09 01:13:14;;;;;;;13.57;1.63;;;6.80;99.90;;;;;;5117418;28;20047;-76
2023/01/09 01:15:43;;;;;;;16.17;1.23;;;6.80;99.90;;;;;;5117399;28;20050;-75
2023/01/09 01:18:12;;;;;;;10.65;1.45;;;6.80;99.90;;;;;;5116000;28;20047;-76
2023/01/09 01:20:41;;;;;;;13.77;1.65;;;7.40;99.90;;;;;;5117182;28;20044;-75
2023/01/09 01:23:09;;;;;;;13.40;1.38;;;6.80;99.90;;;;;;5117773;28;20063;-76
2023/01/09 01:25:38;;;;;;;9.07;1.30;;;6.80;99.90;;;;;;5098406;28;20048;-75
2023/01/09 01:28:06;;;;;;;14.93;1.27;;;6.80;99.90;;;;;;5117063;28;20051;-76
2023/01/09 01:30:38;;;;;;;;;;;6.70;99.90;;;;;;5116383;28;20051;-75
2023/01/09 01:33:05;;;;;;;8.60;1.27;;;6.70;99.90;;;;;;5116269;28;19920;-74
2023/01/09 01:35:34;;;;;;;14.30;1.40;;;6.60;99.90;;;;;;5098996;28;20051;-75
2023/01/09 01:38:01;;;;;;;10.60;1.17;;;6.70;99.90;;;;;;5097935;28;20058;-75
2023/01/09 01:40:29;;;;;;;15.77;1.35;;;7.50;99.90;;;;;;5099011;28;20036;-75
2023/01/09 01:42:57;;;;;;;9.82;1.10;;;6.70;99.90;;;;;;5099056;28;20044;-75
2023/01/09 01:45:27;;;;;;;12.90;1.40;;;6.70;99.90;;;;;;5115468;28;20048;-75
2023/01/09 01:48:11;;;;;;;13.80;1.63;;;6.70;99.90;;;;;;5116363;28;20043;-75
2023/01/09 01:50:54;;;;;;;13.70;1.42;;;6.70;99.90;;;;;;5098329;28;20035;-75
2023/01/09 01:53:31;;;;;;;16.98;1.45;;;6.70;99.90;;;;;;5116586;28;20043;-76
2023/01/09 01:56:08;;;;;;;6.90;1.00;;;6.60;99.90;;;;;;5116424;28;20059;-75
2023/01/09 01:58:51;;;;;;;10.77;1.25;;;6.70;99.90;;;;;;5097526;28;20058;-76
2023/01/09 02:01:21;;;;;;;14.60;1.30;;;6.70;99.90;;;;;;5098976;28;20048;-76
2023/01/09 02:03:51;;;;;;;11.40;1.50;;;6.70;99.90;;;;;;5097562;28;20380;-76
2023/01/09 02:06:18;;;;;;;11.93;1.70;;;6.70;99.90;;;;;;5115948;28;20363;-76
2023/01/09 02:08:46;;;;;;;13.25;1.40;;;7.30;99.90;;;;;;5098294;28;20047;-75
2023/01/09 02:11:17;;;;;;;8.43;1.50;;;6.60;99.90;;;;;;5097454;28;20055;-76
2023/01/09 02:13:45;;;;;;;10.85;1.50;;;7.90;99.90;;;;;;5098627;28;20047;-75
2023/01/09 02:16:21;;;;;;;;;;;6.60;99.90;;;;;;5116333;28;20051;-75
2023/01/09 02:18:52;;;;;;;5.93;1.13;;;6.60;99.90;;;;;;5115000;28;19926;-75
2023/01/09 02:21:30;;;;;;;10.35;1.30;;;6.60;99.90;;;;;;5098269;28;20043;-76
2023/01/09 02:24:13;;;;;;;7.90;1.42;;;6.60;99.90;;;;;;5115063;28;20051;-76
2023/01/09 02:27:07;;;;;;;11.07;1.10;;;6.50;99.90;;;;;;5115950;28;20483;-76
2023/01/09 02:29:54;;;;;;;5.80;1.35;;;6.50;99.90;;;;;;5115651;28;20043;-76
2023/01/09 02:32:26;;;;;;;12.30;1.40;;;6.50;99.90;;;;;;5097182;28;20047;-75
2023/01/09 02:35:08;;;;;;;6.13;1.00;;;6.50;99.90;;;;;;5098084;28;20476;-76
2023/01/09 02:37:41;;;;;;;11.63;1.40;;;6.50;99.90;;;;;;5114660;28;20043;-75
2023/01/09 02:40:25;;;;;;;8.35;1.08;;;6.50;99.90;;;;;;5098111;28;20040;-76
2023/01/09 02:42:56;;;;;;;11.95;1.10;;;6.40;99.90;;;;;;5081099;28;20055;-76
2023/01/09 02:45:23;;;;;;;11.93;1.38;;;6.50;99.90;;;;;;5096517;28;20073;-76
2023/01/09 02:47:51;;;;;;;16.17;1.55;;;6.50;99.90;;;;;;5098093;28;20063;-75
2023/01/09 02:50:26;;;;;;;10.05;1.38;;;6.30;99.90;;;;;;5115352;28;20051;-76
2023/01/09 02:53:25;;;;;;;13.38;1.60;;;6.70;99.90;;;;;;5097965;28;20051;-76
2023/01/09 02:56:00;;;;;;;12.38;1.30;;;6.20;99.90;;;;;;5115414;28;20356;-75
2023/01/09 02:58:54;;;;;;;9.43;1.23;;;6.10;99.90;;;;;;5114240;28;20043;-76
2023/01/09 03:01:34;;;;;;;11.57;1.08;;;6.10;99.90;;;;;;5097873;28;20055;-76
2023/01/09 03:04:13;;;;;;;15.88;1.23;;;6.00;99.90;;;;;;5114167;28;20695;-76
2023/01/09 03:07:02;;;;;;;15.68;1.27;;;5.90;99.90;;;;;;5097216;28;20379;-76
2023/01/09 03:09:33;;;;;;;14.77;1.30;;;5.90;99.90;;;;;;5115149;28;20039;-76
2023/01/09 03:12:08;;;;;;;7.82;1.00;;;5.80;99.90;;;;;;5079556;28;20379;-76
2023/01/09 03:14:39;;;;;;;11.52;1.73;;;5.70;99.90;;;;;;5115055;28;20456;-75
2023/01/09 03:17:11;;;;;;;14.25;1.60;;;5.80;99.90;;;;;;5096619;28;20046;-75
2023/01/09 03:19:40;;;;;;;12.85;1.50;;;6.00;99.90;;;;;;5114941;28;20062;-76
2023/01/09 03:22:08;;;;;;;6.53;1.00;;;5.70;99.90;;;;;;5115624;28;20047;-75
2023/01/09 03:24:37;;;;;;;20.63;1.70;;;5.70;99.90;;;;;;5113884;28;20055;-75
2023/01/09 03:27:08;;;;;;;9.57;1.30;;;5.70;99.90;;;;;;5097429;28;20048;-75
2023/01/09 03:29:36;;;;;;;13.55;1.42;;;5.60;99.90;;;;;;5114946;28;20058;-76
2023/01/09 03:32:04;;;;;;;8.75;1.42;;;5.60;99.90;;;;;;5095920;28;20039;-75
2023/01/09 03:34:31;;;;;;;11.32;1.58;;;5.60;99.90;;;;;;5115079;28;20044;-75
2023/01/09 03:36:59;;;;;;;14.00;1.80;;;5.60;99.90;;;;;;5114999;28;20036;-76
2023/01/09 03:39:26;;;;;;;13.85;1.52;;;5.90;99.90;;;;;;5113909;28;20047;-75
2023/01/09 03:41:53;;;;;;;8.80;1.33;;;5.60;99.90;;;;;;5115283;28;20039;-75
2023/01/09 03:44:21;;;;;;;20.35;1.55;;;5.50;99.90;;;;;;5113838;28;20055;-76
2023/01/09 03:46:49;;;;;;;14.68;1.90;;;5.40;99.90;;;;;;5115335;28;20040;-76
2023/01/09 03:49:16;;;;;;;15.82;1.90;;;5.40;99.90;;;;;;5096887;28;20042;-75
2023/01/09 03:51:44;;;;;;;19.65;1.80;;;5.40;99.90;;;;;;5113788;28;20059;-75
2023/01/09 03:54:11;;;;;;;18.70;2.20;;;5.40;99.90;;;;;;5096980;28;20046;-76
2023/01/09 03:56:39;;;;;;;11.82;1.77;;;5.40;99.90;;;;;;5100937;28;20476;-75
2023/01/09 03:59:06;;;;;;;17.55;1.90;;;5.40;99.90;;;;;;5117412;28;20047;-75
2023/01/09 04:01:34;;;;;;;21.65;2.17;;;5.40;99.90;;;;;;5084465;28;20487;-76
2023/01/09 04:04:03;;;;;;;17.13;2.20;;;6.30;99.90;;;;;;5117892;28;20039;-76
2023/01/09 04:06:31;;;;;;;16.67;2.20;;;5.30;99.90;;;;;;5118321;28;20051;-75
2023/01/09 04:08:58;;;;;;;20.73;2.78;;;5.40;99.90;;;;;;5118633;28;20047;-75
2023/01/09 04:11:26;;;;;;;20.23;2.45;;;5.30;99.90;;;;;;5117243;28;20039;-75
2023/01/09 04:13:53;;;;;;;15.27;1.95;;;6.00;99.90;;;;;;5100395;28;20047;-75
2023/01/09 04:16:20;;;;;;;11.05;2.15;;;5.20;99.90;;;;;;5100704;28;20044;-76
2023/01/09 04:18:48;;;;;;;21.48;2.45;;;6.00;99.90;;;;;;5099480;28;20066;-75
2023/01/09 04:21:16;;;;;;;24.40;3.03;;;5.90;99.90;;;;;;5118350;28;20054;-75
2023/01/09 04:23:44;;;;;;;17.85;2.78;;;5.20;99.90;;;;;;5117288;28;20055;-76
2023/01/09 04:26:11;;;;;;;;;;;5.20;99.90;;;;;;5100588;28;20048;-76
2023/01/09 04:28:39;;;;;;;23.02;2.72;;;5.20;99.90;;;;;;5118070;28;19930;-76
2023/01/09 04:31:06;;;;;;;18.15;2.78;;;5.20;99.90;;;;;;5099454;28;20478;-75
2023/01/09 04:33:33;;;;;;;28.17;2.63;;;5.20;99.90;;;;;;5118340;28;20043;-76
2023/01/09 04:36:01;;;;;;;13.20;2.70;;;5.20;99.90;;;;;;5099966;28;20062;-76
2023/01/09 04:38:29;;;;;;;21.92;2.60;;;5.20;99.90;;;;;;5099053;28;20067;-76
2023/01/09 04:40:57;;;;;;;16.63;2.38;;;5.20;99.90;;;;;;5117774;28;20059;-76
2023/01/09 04:43:24;;;;;;;21.67;2.40;;;5.20;99.90;;;;;;5118373;28;20050;-75
2023/01/09 04:45:52;;;;;;;17.77;2.05;;;6.50;99.90;;;;;;5116599;28;20055;-75
2023/01/09 04:48:19;;;;;;;19.05;2.40;;;5.90;99.90;;;;;;5100024;28;20460;-76
2023/01/09 04:50:47;;;;;;;27.38;2.53;;;5.20;99.90;;;;;;5099101;28;20040;-76
2023/01/09 04:53:14;;;;;;;22.45;2.30;;;5.20;99.90;;;;;;5117937;28;20364;-76
2023/01/09 04:55:42;;;;;;;21.85;2.42;;;5.20;99.90;;;;;;5117592;28;20464;-75
2023/01/09 04:58:09;;;;;;;30.98;2.92;;;5.50;99.90;;;;;;5116834;28;20047;-75
2023/01/09 05:00:36;;;;;;;26.10;2.78;;;5.30;99.90;;;;;;5117775;28;20043;-76
2023/01/09 05:03:04;;;;;;;21.88;2.28;;;5.70;99.90;;;;;;5117818;28;20047;-76
2023/01/09 05:05:32;;;;;;;23.70;2.67;;;5.40;99.90;;;;;;5081863;28;20055;-76
2023/01/09 05:07:59;;;;;;;19.33;2.50;;;5.90;99.90;;;;;;5081778;28;20044;-76
2023/01/09 05:10:26;;;;;;;25.58;2.53;;;5.40;99.90;;;;;;5116754;28;20067;-76
2023/01/09 05:12:54;;;;;;;25.70;3.08;;;5.40;99.90;;;;;;5117455;28;20044;-76
2023/01/09 05:15:21;;;;;;;33.13;2.80;;;5.30;99.90;;;;;;5099348;28;20043;-75
2023/01/09 05:17:49;;;;;;;19.73;2.55;;;5.40;99.90;;;;;;5081513;28;20036;-76
2023/01/09 05:20:16;;;;;;;22.33;2.28;;;5.30;99.90;;;;;;5099285;28;20032;-75
2023/01/09 05:22:44;;;;;;;26.13;2.53;;;5.30;99.90;;;;;;5116993;28;20036;-75
2023/01/09 05:25:11;;;;;;;35.65;2.65;;;5.30;99.90;;;;;;5116004;28;20043;-75
2023/01/09 05:27:42;;;;;;;20.88;2.90;;;5.30;99.90;;;;;;5099752;28;20047;-75
2023/01/09 05:30:11;;;;;;;22.27;2.80;;;5.30;99.90;;;;;;5082706;28;20048;-76
2023/01/09 05:32:40;;;;;;;18.83;2.72;;;5.30;99.90;;;;;;5097810;28;20053;-75
2023/01/09 05:35:08;;;;;;;31.17;3.50;;;5.40;99.90;;;;;;5116701;28;20066;-76
2023/01/09 05:37:35;;;;;;;30.05;2.67;;;5.40;99.90;;;;;;5098002;28;20054;-76
2023/01/09 05:40:03;;;;;;;32.28;3.20;;;5.40;99.90;;;;;;5099295;28;20395;-76
2023/01/09 05:42:31;;;;;;;27.90;3.15;;;5.40;99.90;;;;;;5099281;28;20040;-76
2023/01/09 05:44:58;;;;;;;28.42;3.25;;;5.30;99.90;;;;;;5115589;28;20051;-76
2023/01/09 05:47:26;;;;;;;20.30;2.47;;;5.30;99.90;;;;;;5116589;28;20051;-76
2023/01/09 05:49:55;;;;;;;31.73;3.28;;;5.30;99.90;;;;;;5116440;28;20039;-76
2023/01/09 05:52:23;;;;;;;33.15;3.17;;;5.30;99.90;;;;;;5097726;28;20043;-75
2023/01/09 05:54:51;;;;;;;21.55;2.63;;;5.30;99.90;;;;;;5116644;28;20113;-76
2023/01/09 05:57:18;;;;;;;31.30;3.13;;;5.30;99.90;;;;;;5115684;28;20456;-76
2023/01/09 05:59:46;;;;;;;17.75;2.95;;;5.40;99.90;;;;;;5116258;28;20044;-76
2023/01/09 06:02:13;;;;;;;25.15;2.83;;;5.40;99.90;;;;;;5116457;28;20498;-76
2023/01/09 06:04:42;;;;;;;27.95;2.92;;;5.90;99.90;;;;;;5097201;28;20043;-76
2023/01/09 06:07:10;;;;;;;24.88;3.10;;;5.40;99.90;;;;;;5098460;28;20062;-75
2023/01/09 06:09:37;;;;;;;25.13;2.50;;;5.40;99.90;;;;;;5116159;28;20044;-76
2023/01/09 06:12:06;;;;;;;34.75;3.28;;;5.30;99.90;;;;;;5097344;28;20036;-75
2023/01/09 06:14:33;;;;;;;37.67;3.38;;;5.30;99.90;;;;;;5115939;28;20046;-76
2023/01/09 06:17:01;;;;;;;24.30;2.72;;;5.50;99.90;;;;;;5081958;28;20047;-76
2023/01/09 06:19:28;;;;;;;25.27;3.40;;;5.60;99.90;;;;;;5115659;28;20047;-76
2023/01/09 06:21:56;;;;;;;33.00;3.30;;;5.70;99.90;;;;;;5098514;28;20062;-76
2023/01/09 06:24:23;;;;;;;22.35;2.92;;;5.30;99.90;;;;;;5115080;28;20051;-75
2023/01/09 06:26:51;;;;;;;26.55;2.78;;;5.40;99.90;;;;;;5081112;28;20062;-76
2023/01/09 06:29:18;;;;;;;23.02;2.80;;;5.30;99.90;;;;;;5097729;28;20043;-76
2023/01/09 06:31:46;;;;;;;18.83;2.65;;;5.30;99.90;;;;;;5097033;28;20380;-75
2023/01/09 06:34:13;;;;;;;30.45;2.85;;;5.30;99.90;;;;;;5115734;28;20051;-76
2023/01/09 06:36:41;;;;;;;35.35;3.33;;;5.50;99.90;;;;;;5115624;28;20357;-76
2023/01/09 06:39:08;;;;;;;22.15;2.38;;;5.30;99.90;;;;;;5096882;28;20047;-76
2023/01/09 06:41:36;;;;;;;38.38;3.28;;;5.30;99.90;;;;;;5097599;28;20047;-76
2023/01/09 06:44:03;;;;;;;27.88;2.97;;;5.30;99.90;;;;;;5063146;28;20279;-77
2023/01/09 06:46:31;;;;;;;29.25;2.90;;;5.30;99.90;;;;;;5097547;28;20391;-76
2023/01/09 06:48:58;;;;;;;20.23;1.73;;;5.30;99.90;;;;;;5081372;28;20047;-77
2023/01/09 06:51:26;;;;;;;31.90;2.90;;;5.30;99.90;;;;;;5114530;28;20039;-76
2023/01/09 06:53:53;;;;;;;25.60;2.80;;;5.40;99.90;;;;;;5115288;28;20039;-76
2023/01/09 06:56:21;;;;;;;23.98;2.60;;;5.30;99.90;;;;;;5115409;28;20051;-76
2023/01/09 06:58:48;;;;;;;29.88;2.65;;;5.30;99.90;;;;;;5096570;28;20051;-76
2023/01/09 07:01:16;;;;;;;16.50;1.85;;;5.30;99.90;;;;;;5115179;28;20048;-76
2023/01/09 07:03:44;;;;;;;24.35;2.70;;;6.70;99.90;;;;;;5096746;28;20051;-77
2023/01/09 07:06:12;;;;;;;20.65;2.22;;;5.40;99.90;;;;;;5115106;28;20039;-77
2023/01/09 07:08:40;;;;;;;26.45;2.92;;;6.50;99.90;;;;;;5114974;28;20048;-76
2023/01/09 07:11:07;;;;;;;20.23;2.25;;;5.40;99.90;;;;;;5096807;28;20043;-77
2023/01/09 07:13:37;;;;;;;21.20;2.50;;;7.30;99.90;;;;;;5080557;28;20043;-77
2023/01/09 07:16:05;;;;;;;26.15;2.80;;;5.90;99.90;;;;;;5115128;28;20047;-77
2023/01/09 07:18:32;;;;;;;22.85;2.10;;;5.40;99.90;;;;;;5114292;28;20054;-77
2023/01/09 07:21:03;;;;;;;23.48;2.58;;;5.40;99.90;;;;;;5115012;28;20047;-77
2023/01/09 07:23:30;;;;;;;30.35;2.92;;;5.40;99.90;;;;;;5097552;28;20468;-77
2023/01/09 07:25:59;;;;;;;19.42;2.35;;;5.60;99.90;;;;;;5096378;28;20472;-77
2023/01/09 07:28:27;;;;;;;27.15;2.97;;;5.40;99.90;;;;;;5114799;28;20050;-77
2023/01/09 07:30:54;;;;;;;26.88;2.53;;;5.40;99.90;;;;;;5096222;28;20048;-77
2023/01/09 07:33:21;;;;;;;20.30;2.30;;;5.40;99.90;;;;;;5098711;28;20457;-77
2023/01/09 07:35:50;;;;;;;31.33;2.72;;;5.40;99.90;;;;;;5080967;28;20036;-77
2023/01/09 07:38:17;;;;;;;;;;;5.40;99.90;;;;;;5098330;28;20040;-77
2023/01/09 07:40:47;;;;;;;26.73;2.50;;;5.30;99.90;;;;;;5064440;28;19924;-77
2023/01/09 07:43:16;;;;;;;30.45;3.10;;;5.30;99.90;;;;;;5081633;28;20048;-77
2023/01/09 07:45:45;;;;;;;19.90;2.17;;;5.40;99.90;;;;;;5079893;28;20392;-77
2023/01/09 07:48:13;;;;;;;24.40;2.22;;;6.20;99.90;;;;;;5080949;28;20040;-77
2023/01/09 07:50:42;;;;;;;24.10;2.30;;;6.00;99.90;;;;;;5096655;28;20044;-77
2023/01/09 07:53:12;;;;;;;22.98;2.08;;;5.40;99.90;;;;;;5098214;28;20048;-76
2023/01/09 07:55:44;;;;;;;25.92;2.80;;;5.30;99.90;;;;;;5099281;28;20059;-77
2023/01/09 07:58:12;;;;;;;27.50;3.00;;;7.00;99.90;;;;;;5097122;28;20044;-76
2023/01/09 08:00:39;;;;;;;30.48;2.97;;;5.70;99.90;;;;;;5080255;28;20043;-77
2023/01/09 08:03:11;;;;;;;26.75;2.47;;;7.60;99.90;;;;;;5098415;28;20055;-77
2023/01/09 08:05:38;;;;;;;34.97;2.92;;;5.50;99.90;;;;;;5082505;28;20483;-77
2023/01/09 08:08:06;;;;;;;21.52;3.03;;;6.00;99.90;;;;;;5100342;28;20062;-76
2023/01/09 08:10:33;;;;;;;29.67;3.30;;;5.30;99.90;;;;;;5082370;28;20043;-77
2023/01/09 08:13:01;;;;;;;24.00;2.60;;;5.30;99.90;;;;;;5083607;28;20079;-77
2023/01/09 08:15:29;;;;;;;35.05;3.30;;;6.50;99.90;;;;;;5117957;28;20464;-78
2023/01/09 08:17:57;;;;;;;24.67;2.88;;;5.30;99.90;;;;;;5099321;28;20040;-77
2023/01/09 08:20:24;;;;;;;24.17;3.08;;;6.30;99.90;;;;;;5099867;28;20500;-77
2023/01/09 08:22:53;;;;;;;25.25;2.88;;;5.30;99.90;;;;;;5118037;28;20043;-79
2023/01/09 08:25:20;;;;;;;32.28;3.47;;;6.10;99.90;;;;;;5116873;28;20471;-77
2023/01/09 08:27:48;;;;;;;26.58;3.03;;;5.30;99.90;;;;;;5117856;28;20047;-76
2023/01/09 08:30:16;;;;;;;26.33;3.00;;;5.30;99.90;;;;;;5117774;28;20039;-75
2023/01/09 08:32:49;;;;;;;28.40;2.63;;;5.30;99.90;;;;;;5082022;28;20051;-77
2023/01/09 08:35:17;;;;;;;23.48;2.70;;;5.30;99.90;;;;;;5118246;28;20043;-77
2023/01/09 08:37:46;;;;;;;28.60;2.70;;;5.30;99.90;;;;;;5099246;28;20047;-77
2023/01/09 08:40:14;;;;;;;27.75;2.55;;;5.20;99.90;;;;;;5100389;28;20058;-77
2023/01/09 08:48:15;;;;;;;21.17;2.50;;;6.00;99.90;;;;;;5083206;28;20051;-77
2023/01/09 08:50:43;;;;;;;26.20;2.88;;;5.30;99.90;;;;;;5116675;28;20222;-77
2023/01/09 08:53:11;;;;;;;25.13;3.10;;;6.30;99.90;;;;;;5099833;28;20052;-77
2023/01/09 08:55:38;;;;;;;29.52;3.30;;;5.40;99.90;;;;;;5083493;28;20040;-77
2023/01/09 08:58:06;;;;;;;24.63;2.38;;;5.30;99.90;;;;;;5099154;28;20043;-76
2023/01/09 09:00:33;;;;;;;29.65;2.95;;;6.70;99.90;;;;;;5117778;28;20472;-77
2023/01/09 09:03:01;;;;;;;23.33;2.75;;;5.40;99.90;;;;;;5117780;28;20345;-77
2023/01/09 09:05:33;;;;;;;27.33;3.40;;;5.40;99.90;;;;;;5116284;28;20058;-77
2023/01/09 09:08:02;;;;;;;23.60;3.03;;;5.50;99.90;;;;;;5099436;28;20058;-77
2023/01/09 09:10:30;;;;;;;21.60;2.75;;;5.40;99.90;;;;;;5098355;28;20494;-77
2023/01/09 09:12:58;;;;;;;29.20;2.65;;;6.20;99.90;;;;;;5117400;28;20036;-77
2023/01/09 09:15:27;;;;;;;24.42;2.78;;;5.60;99.90;;;;;;5117388;28;20051;-77
2023/01/09 09:18:03;;;;;;;24.58;2.53;;;6.10;99.90;;;;;;5098547;28;20467;-77
2023/01/09 09:20:34;;;;;;;22.63;2.17;;;5.70;99.90;;;;;;5116463;28;20342;-77
2023/01/09 09:23:02;;;;;;;22.70;2.38;;;5.80;99.90;;;;;;5116749;28;20051;-77
2023/01/09 09:25:30;;;;;;;;;;;5.90;99.90;;;;;;5115474;28;20047;-74
2023/01/09 09:27:59;;;;;;;18.63;2.05;;;6.00;99.90;;;;;;5116752;28;19919;-78
2023/01/09 09:30:27;;;;;;;22.88;2.67;;;6.10;99.90;;;;;;5115861;28;20036;-78
2023/01/09 09:32:55;;;;;;;21.95;2.55;;;7.40;99.90;;;;;;5117008;28;20039;-78
2023/01/09 09:35:22;;;;;;;22.13;2.45;;;6.30;99.90;;;;;;5116913;28;20039;-78
2023/01/09 09:38:01;;;;;;;25.50;2.00;;;6.40;99.90;;;;;;5097779;28;20356;-78
2023/01/09 09:41:05;;;;;;;21.83;2.60;;;7.60;99.90;;;;;;5099652;28;20054;-78
2023/01/09 09:46:42;;;;;;;24.02;2.20;;;6.90;99.90;;;;;;5081837;28;20052;-78
2023/01/09 09:49:22;;;;;;;18.05;2.10;;;6.60;99.90;;;;;;5116472;28;20044;-78
2023/01/09 09:52:01;;;;;;;15.00;1.90;;;6.40;99.90;;;;;;5115578;28;20048;-78
2023/01/09 09:54:42;;;;;;;12.10;2.38;;;6.40;99.90;;;;;;5116277;28;20043;-78
2023/01/09 09:57:24;;;;;;;12.30;1.98;;;6.50;99.90;;;;;;5096927;28;20055;-79
2023/01/09 09:59:52;;;;;;;14.15;2.30;;;6.60;99.90;;;;;;5116352;28;20043;-77
2023/01/09 10:02:31;;;;;;;;;;;6.70;99.90;;;;;;5081438;28;20496;-78
2023/01/09 10:05:32;;;;;;;13.00;1.80;;;6.80;99.90;;;;;;5061211;28;20261;-79
2023/01/09 10:08:05;;;;;;;20.58;2.30;;;7.00;99.90;;;;;;5071920;28;20055;-79
2023/01/09 10:10:48;;;;;;;21.20;2.55;;;7.00;99.90;;;;;;5082256;28;20494;-75
2023/01/09 10:16:29;;;;;;;10.75;1.48;;;7.10;99.90;;;;;;5116089;28;20035;-74
2023/01/09 10:19:22;;;;;;;11.38;1.67;;;7.20;99.90;;;;;;5093441;28;20475;-74
2023/01/09 10:22:10;;;;;;;11.05;1.67;;;7.20;99.90;;;;;;5116533;28;20052;-74
2023/01/09 10:24:52;;;;;;;15.43;2.53;;;7.30;99.90;;;;;;5080417;28;20051;-74
2023/01/09 10:27:42;;;;;;;15.85;2.13;;;7.40;99.90;;;;;;5064619;28;20054;-74
2023/01/09 10:30:48;;;;;;;10.00;1.83;;;7.40;99.90;;;;;;5095655;28;20048;-74
2023/01/09 10:33:27;;;;;;;19.90;1.73;;;7.50;99.90;;;;;;5094559;28;20047;-74
2023/01/09 10:36:27;;;;;;;17.40;1.80;;;7.50;99.90;;;;;;5078229;28;20047;-76
2023/01/09 10:39:00;;;;;;;13.82;1.85;;;7.50;99.90;;;;;;5076634;28;20061;-74
2023/01/09 10:41:44;;;;;;;12.48;1.70;;;7.60;99.90;;;;;;5095575;28;20048;-75
2023/01/09 10:44:36;;;;;;;14.73;1.73;;;7.60;99.90;;;;;;5076149;28;20044;-75
2023/01/09 10:47:14;;;;;;;9.73;1.60;;;7.70;99.90;;;;;;5077209;28;20052;-75
2023/01/09 10:49:42;;;;;;;10.52;1.52;;;7.80;99.90;;;;;;5077035;28;20055;-75
2023/01/09 10:52:16;;;;;;;16.75;1.98;;;7.80;99.90;;;;;;5094134;28;20044;-75
2023/01/09 10:54:53;;;;;;;11.45;1.60;;;7.80;99.90;;;;;;5079588;28;20367;-75
2023/01/09 10:57:37;;;;;;;15.13;1.60;;;7.90;99.90;;;;;;5103927;28;20451;-79
2023/01/09 11:00:06;;;;;;;18.88;1.77;;;7.90;99.90;;;;;;5115304;28;20476;-77
2023/01/09 11:02:35;;;;;;;9.30;1.98;;;7.90;99.90;;;;;;5098095;28;20046;-76
2023/01/09 11:05:02;;;;;;;9.32;1.90;;;8.00;99.90;;;;;;5107400;28;20043;-76
2023/01/09 11:07:40;;;;;;;7.43;1.40;;;8.00;99.90;;;;;;5115229;28;20058;-76
2023/01/09 11:10:13;;;;;;;11.32;1.63;;;8.00;99.90;;;;;;5080864;28;20047;-76
2023/01/09 11:12:41;;;;;;;9.48;1.65;;;8.00;99.90;;;;;;5096368;28;20046;-76
2023/01/09 11:15:14;;;;;;;10.60;1.50;;;8.90;99.90;;;;;;5080787;28;20043;-76
2023/01/09 11:17:42;;;;;;;7.10;1.17;;;8.10;99.90;;;;;;5103179;28;20054;-76
2023/01/09 11:20:28;;;;;;;8.40;1.58;;;8.30;99.90;;;;;;5097243;28;20044;-75
2023/01/09 11:22:57;;;;;;;8.68;1.30;;;8.00;99.90;;;;;;5097138;28;20040;-76
2023/01/09 11:25:27;;;;;;;5.75;1.10;;;8.00;99.90;;;;;;5111543;28;20437;-76
2023/01/09 11:28:05;;;;;;;9.77;1.40;;;8.80;99.90;;;;;;5097869;28;20035;-78
2023/01/09 11:30:50;;;;;;;8.25;1.23;;;7.80;99.90;;;;;;5089916;28;20051;-77
2023/01/09 11:33:23;;;;;;;10.13;1.45;;;7.70;99.90;;;;;;5107055;28;20055;-78
2023/01/09 11:35:58;;;;;;;7.65;1.45;;;7.70;99.90;;;;;;5079765;28;20048;-76
2023/01/09 11:38:26;;;;;;;8.18;1.13;;;7.60;99.90;;;;;;5093373;28;20066;-77
2023/01/09 11:41:05;;;;;;;6.28;1.20;;;8.70;99.90;;;;;;5094261;28;20428;-78
2023/01/09 11:43:37;;;;;;;4.68;0.90;;;7.60;99.90;;;;;;5076457;28;20388;-77
2023/01/09 11:46:07;;;;;;;5.43;1.08;;;7.70;99.90;;;;;;5090129;28;20043;-75
2023/01/09 11:48:36;;;;;;;13.60;1.27;;;9.40;99.90;;;;;;5114927;28;20357;-74
2023/01/09 11:51:18;;;;;;;5.03;1.13;;;7.80;99.90;;;;;;5112625;28;20048;-75
2023/01/09 11:54:04;;;;;;;7.57;1.20;;;8.00;99.90;;;;;;5114981;28;20051;-75
2023/01/09 11:56:35;;;;;;;7.18;1.10;;;8.10;99.90;;;;;;5113922;28;20044;-74
2023/01/09 11:59:15;;;;;;;4.82;1.15;;;8.70;99.90;;;;;;5113339;28;20050;-74
2023/01/09 12:01:56;;;;;;;7.32;0.95;;;8.20;99.90;;;;;;5076709;28;20048;-74
2023/01/09 12:04:27;;;;;;;9.20;1.20;;;8.70;99.90;;;;;;5107941;28;20052;-73
2023/01/09 12:07:20;;;;;;;8.10;1.45;;;8.40;99.90;;;;;;5114549;28;20055;-73
2023/01/09 12:09:59;;;;;;;7.15;1.30;;;8.40;99.90;;;;;;5114502;28;20044;-77
2023/01/09 12:12:44;;;;;;;6.57;1.15;;;8.50;99.90;;;;;;5095928;28;20063;-75
2023/01/09 12:15:27;;;;;;;5.10;1.15;;;8.50;99.90;;;;;;5114304;28;20043;-75
2023/01/09 12:18:29;;;;;;;9.07;1.50;;;8.60;99.90;;;;;;5099309;28;20083;-74
2023/01/09 12:21:10;;;;;;;7.47;1.38;;;8.60;99.90;;;;;;5100738;28;20039;-74
2023/01/09 12:23:53;;;;;;;6.85;1.15;;;8.50;99.90;;;;;;5100405;28;20047;-77
2023/01/09 12:26:26;;;;;;;9.27;1.20;;;8.50;99.90;;;;;;5100297;28;20051;-77
2023/01/09 12:29:20;;;;;;;10.93;1.33;;;8.50;99.90;;;;;;5118087;28;20044;-76
2023/01/09 12:32:08;;;;;;;5.13;0.90;;;8.60;99.90;;;;;;5116961;28;20336;-76
2023/01/09 12:34:55;;;;;;;11.00;1.27;;;8.60;99.90;;;;;;5100864;28;20062;-76
2023/01/09 12:37:28;;;;;;;5.95;0.90;;;9.50;99.90;;;;;;5065756;28;20050;-76
2023/01/09 12:40:11;;;;;;;4.97;1.08;;;8.70;99.90;;;;;;5066256;28;20040;-76
2023/01/09 12:42:58;;;;;;;9.18;1.20;;;8.70;99.90;;;;;;5079925;28;20074;-77
2023/01/09 12:45:54;;;;;;;8.27;1.27;;;8.70;99.90;;;;;;5116042;28;20043;-77
2023/01/09 12:48:30;;;;;;;7.43;1.00;;;8.80;99.90;;;;;;5067083;28;20055;-77
2023/01/09 12:51:20;;;;;;;5.18;1.17;;;8.80;99.90;;;;;;5116631;28;20368;-78
2023/01/09 12:54:17;;;;;;;6.25;1.05;;;8.80;99.90;;;;;;5099905;28;20050;-77
2023/01/09 12:56:50;;;;;;;7.30;1.20;;;8.90;99.90;;;;;;5117688;28;20043;-78
2023/01/09 12:59:50;;;;;;;6.35;1.42;;;9.90;99.90;;;;;;5116264;28;20044;-77
2023/01/09 13:02:26;;;;;;;5.65;1.08;;;9.00;99.90;;;;;;5066353;28;20058;-77
2023/01/09 13:05:20;;;;;;;7.47;1.30;;;9.50;99.90;;;;;;5116387;28;20058;-77
2023/01/09 13:08:12;;;;;;;12.70;1.60;;;8.90;99.90;;;;;;5106921;28;20047;-77
2023/01/09 13:10:44;;;;;;;10.23;1.30;;;10.60;99.90;;;;;;5098522;28;20051;-77
2023/01/09 13:13:23;;;;;;;11.85;1.42;;;8.90;99.90;;;;;;5116658;28;20039;-77
2023/01/09 13:15:58;;;;;;;10.52;1.40;;;8.90;99.90;;;;;;5082439;28;20055;-77
2023/01/09 13:18:42;;;;;;;11.15;1.63;;;9.40;99.90;;;;;;5088494;28;20055;-76
2023/01/09 13:21:12;;;;;;;12.00;1.75;;;8.90;99.90;;;;;;5090980;28;20035;-76
2023/01/09 13:24:21;;;;;;;8.07;1.35;;;8.90;99.90;;;;;;5106256;28;20371;-76
2023/01/09 13:26:53;;;;;;;7.78;1.27;;;8.80;99.90;;;;;;5104700;28;20047;-76
2023/01/09 13:29:31;;;;;;;11.73;1.30;;;9.60;99.90;;;;;;5102840;28;20047;-76
2023/01/09 13:32:14;;;;;;;10.73;1.60;;;8.80;99.90;;;;;;5097114;28;20498;-76